createdAt,value
2018-06-27T00:01:12.178Z,75.70
2018-06-27T00:03:40.248Z,75.80
2018-06-27T00:06:08.156Z,76.00
2018-06-27T00:08:36.020Z,76.30
2018-06-27T00:11:04.146Z,76.40
2018-06-27T00:13:32.249Z,77.20
2018-06-27T00:16:00.662Z,76.40
2018-06-27T00:18:28.839Z,76.50
2018-06-27T00:20:58.669Z,76.40
2018-06-27T00:23:26.822Z,76.50
2018-06-27T00:25:54.824Z,76.20
2018-06-27T00:28:22.866Z,76.10
2018-06-27T00:30:50.785Z,76.00
2018-06-27T00:33:18.737Z,76.00
2018-06-27T00:35:47.006Z,76.20
2018-06-27T00:38:16.565Z,76.10
2018-06-27T00:40:48.192Z,76.20
2018-06-27T00:46:11.533Z,76.30
2018-06-27T00:51:07.108Z,77.20
2018-06-27T00:53:40.520Z,76.40
2018-06-27T00:56:08.422Z,76.50
2018-06-27T00:58:36.290Z,76.80
2018-06-27T01:01:04.268Z,76.90
2018-06-27T01:03:32.742Z,77.00
2018-06-27T01:06:00.700Z,77.20
2018-06-27T01:08:28.661Z,77.20
2018-06-27T01:10:59.274Z,77.20
2018-06-27T01:13:27.168Z,77.30
2018-06-27T01:15:55.116Z,77.60
2018-06-27T01:18:23.234Z,78.50
2018-06-27T01:20:51.257Z,77.90
2018-06-27T01:23:19.257Z,78.20
2018-06-27T01:25:47.741Z,78.10
2018-06-27T01:28:15.618Z,78.40
2018-06-27T01:30:43.515Z,78.70
2018-06-27T01:33:11.221Z,79.20
2018-06-27T01:35:39.087Z,79.20
2018-06-27T01:38:12.920Z,79.30
2018-06-27T01:40:40.841Z,79.40
2018-06-27T01:43:08.678Z,79.40
2018-06-27T01:45:36.565Z,79.30
2018-06-27T01:48:04.528Z,79.40
2018-06-27T01:50:32.485Z,79.60
2018-06-27T01:53:18.752Z,79.80
2018-06-27T01:55:46.702Z,80.00
2018-06-27T01:58:14.555Z,80.20
2018-06-27T02:00:42.811Z,80.40
2018-06-27T02:03:10.616Z,80.60
2018-06-27T02:05:51.471Z,80.90
2018-06-27T02:08:19.413Z,81.10
2018-06-27T02:10:48.077Z,81.20
2018-06-27T02:13:16.666Z,81.50
2018-06-27T02:15:44.588Z,81.80
2018-06-27T02:18:12.604Z,81.80
2018-06-27T02:20:41.087Z,82.10
2018-06-27T02:23:11.253Z,82.30
2018-06-27T02:25:39.473Z,82.70
2018-06-27T02:28:08.362Z,83.10
2018-06-27T02:30:36.246Z,83.10
2018-06-27T02:33:04.194Z,83.10
2018-06-27T02:35:32.040Z,83.30
2018-06-27T02:37:59.989Z,83.90
2018-06-27T02:40:27.977Z,83.70
2018-06-27T02:42:55.891Z,83.70
2018-06-27T02:45:24.062Z,83.90
2018-06-27T02:47:52.043Z,84.00
2018-06-27T02:50:19.964Z,84.10
2018-06-27T02:52:48.841Z,84.10
2018-06-27T02:55:17.797Z,84.30
2018-06-27T02:57:45.649Z,84.50
2018-06-27T03:02:43.558Z,85.00
2018-06-27T03:05:12.084Z,85.00
2018-06-27T03:07:40.045Z,85.20
2018-06-27T03:10:08.031Z,85.10
2018-06-27T03:12:35.836Z,84.80
2018-06-27T03:15:04.415Z,85.20
2018-06-27T03:17:32.479Z,84.40
2018-06-27T03:20:00.461Z,84.40
2018-06-27T03:22:28.356Z,85.10
2018-06-27T03:24:56.281Z,83.80
2018-06-27T03:27:24.265Z,83.80
2018-06-27T03:29:52.302Z,84.30
2018-06-27T03:32:20.229Z,84.30
2018-06-27T03:34:48.115Z,84.30
2018-06-27T03:37:16.118Z,84.50
2018-06-27T03:39:44.064Z,84.70
2018-06-27T03:42:12.127Z,84.30
2018-06-27T03:44:40.040Z,84.30
2018-06-27T03:47:08.278Z,84.10
2018-06-27T03:49:36.252Z,84.10
2018-06-27T03:52:04.300Z,84.20
2018-06-27T03:54:32.221Z,84.00
2018-06-27T03:57:00.148Z,84.00
2018-06-27T03:59:28.102Z,84.50
2018-06-27T04:01:56.159Z,84.00
2018-06-27T04:04:24.098Z,84.00
2018-06-27T04:06:51.968Z,84.10
2018-06-27T04:09:20.048Z,84.00
2018-06-27T04:11:47.904Z,83.80
2018-06-27T04:14:16.241Z,83.90
2018-06-27T04:16:44.239Z,84.00
2018-06-27T04:19:12.158Z,84.00
2018-06-27T04:21:40.138Z,83.40
2018-06-27T04:24:08.175Z,82.20
2018-06-27T04:26:36.014Z,81.70
2018-06-27T04:29:03.960Z,80.90
2018-06-27T04:31:32.222Z,80.40
2018-06-27T04:34:00.198Z,79.30
2018-06-27T04:36:28.036Z,78.60
2018-06-27T04:38:56.035Z,78.70
2018-06-27T04:41:24.231Z,77.90
2018-06-27T04:43:52.245Z,77.40
2018-06-27T04:46:20.258Z,77.50
2018-06-27T04:48:48.297Z,77.00
2018-06-27T04:51:16.199Z,78.30
2018-06-27T04:53:44.139Z,76.20
2018-06-27T04:56:12.005Z,76.40
2018-06-27T04:58:39.869Z,76.20
2018-06-27T05:01:07.882Z,77.70
2018-06-27T05:03:35.755Z,75.90
2018-06-27T05:06:03.509Z,75.60
2018-06-27T05:08:31.434Z,75.30
2018-06-27T05:10:59.350Z,75.80
2018-06-27T05:13:27.157Z,75.10
2018-06-27T05:15:55.087Z,74.80
2018-06-27T05:18:23.092Z,74.00
2018-06-27T05:20:50.996Z,74.40
2018-06-27T05:23:19.045Z,74.30
2018-06-27T05:25:47.018Z,73.20
2018-06-27T05:28:14.807Z,73.00
2018-06-27T05:30:42.624Z,72.80
2018-06-27T05:33:10.454Z,72.20
2018-06-27T05:35:38.299Z,72.20
2018-06-27T05:38:06.158Z,71.50
2018-06-27T05:40:34.258Z,71.30
2018-06-27T05:43:02.183Z,70.80
2018-06-27T05:45:30.088Z,72.60
2018-06-27T05:47:57.998Z,71.40
2018-06-27T05:50:25.836Z,71.80
2018-06-27T05:52:53.831Z,71.20
2018-06-27T05:55:21.867Z,72.30
2018-06-27T05:57:49.817Z,71.50
2018-06-27T06:00:17.694Z,69.80
2018-06-27T06:02:45.552Z,70.20
2018-06-27T06:05:13.442Z,70.40
2018-06-27T06:10:09.056Z,70.40
2018-06-27T06:12:36.881Z,68.30
2018-06-27T06:15:04.741Z,67.70
2018-06-27T06:17:32.560Z,67.80
2018-06-27T06:20:00.477Z,67.90
2018-06-27T06:22:28.463Z,66.60
2018-06-27T06:24:56.393Z,62.80
2018-06-27T06:27:24.531Z,57.20
2018-06-27T06:29:52.548Z,54.70
2018-06-27T06:32:20.501Z,51.80
2018-06-27T06:34:48.436Z,49.60
2018-06-27T06:37:16.374Z,49.40
2018-06-27T06:39:44.552Z,48.60
2018-06-27T06:42:12.489Z,46.10
2018-06-27T06:44:40.383Z,43.20
2018-06-27T06:47:08.198Z,42.10
2018-06-27T06:49:36.047Z,41.80
2018-06-27T06:52:04.065Z,42.60
2018-06-27T06:54:32.732Z,42.10
2018-06-27T06:57:00.695Z,41.90
2018-06-27T06:59:28.630Z,41.70
2018-06-27T07:01:56.511Z,41.70
2018-06-27T07:04:24.446Z,42.30
2018-06-27T07:06:52.509Z,41.20
2018-06-27T07:09:20.448Z,41.20
2018-06-27T07:11:48.443Z,41.60
2018-06-27T07:14:16.404Z,41.70
2018-06-27T07:16:44.239Z,39.80
2018-06-27T07:19:12.250Z,39.90
2018-06-27T07:21:40.278Z,40.90
2018-06-27T07:24:08.108Z,42.70
2018-06-27T07:26:36.163Z,42.50
2018-06-27T07:29:04.121Z,43.30
2018-06-27T07:31:32.082Z,44.40
2018-06-27T07:33:59.895Z,45.00
2018-06-27T07:36:27.768Z,43.50
2018-06-27T07:38:55.685Z,42.40
2018-06-27T07:41:23.908Z,40.90
2018-06-27T07:43:51.785Z,41.00
2018-06-27T07:46:19.770Z,42.40
2018-06-27T07:48:47.834Z,41.40
2018-06-27T07:51:16.181Z,41.50
2018-06-27T07:53:44.063Z,43.10
2018-06-27T07:56:12.007Z,44.00
2018-06-27T07:58:39.987Z,44.90
2018-06-27T08:01:07.985Z,45.70
2018-06-27T08:03:39.293Z,47.30
2018-06-27T08:06:07.273Z,49.10
2018-06-27T08:08:35.198Z,49.70
2018-06-27T08:11:03.728Z,50.30
2018-06-27T08:13:31.574Z,52.40
2018-06-27T08:15:59.354Z,51.90
2018-06-27T08:18:27.258Z,51.10
2018-06-27T08:20:55.183Z,49.40
2018-06-27T08:23:23.035Z,48.20
2018-06-27T08:25:52.065Z,47.10
2018-06-27T08:28:21.184Z,47.40
2018-06-27T08:30:49.219Z,49.00
2018-06-27T08:33:17.303Z,49.70
2018-06-27T08:35:45.466Z,49.50
2018-06-27T08:38:13.745Z,49.80
2018-06-27T08:40:46.755Z,50.70
2018-06-27T08:43:14.742Z,50.00
2018-06-27T08:45:42.647Z,50.20
2018-06-27T08:48:10.714Z,50.00
2018-06-27T08:50:38.611Z,49.30
2018-06-27T08:53:06.542Z,48.70
2018-06-27T08:55:34.964Z,49.30
2018-06-27T08:58:02.891Z,48.60
2018-06-27T09:00:30.609Z,47.50
2018-06-27T09:02:58.544Z,48.20
2018-06-27T09:05:26.569Z,47.50
2018-06-27T09:07:54.551Z,48.30
2018-06-27T09:10:22.928Z,47.80
2018-06-27T09:12:50.957Z,47.50
2018-06-27T09:15:19.192Z,47.60
2018-06-27T09:17:47.133Z,47.80
2018-06-27T09:20:15.298Z,49.20
2018-06-27T09:22:43.313Z,47.90
2018-06-27T09:25:11.397Z,46.90
2018-06-27T09:27:39.353Z,46.10
2018-06-27T09:30:07.247Z,45.40
2018-06-27T09:32:36.263Z,43.40
2018-06-27T09:35:04.299Z,43.40
2018-06-27T09:37:32.117Z,43.70
2018-06-27T09:40:00.040Z,44.40
2018-06-27T09:42:27.912Z,44.80
2018-06-27T09:44:55.852Z,45.00
2018-06-27T09:47:23.886Z,45.00
2018-06-27T09:49:51.871Z,45.50
2018-06-27T09:52:19.950Z,45.60
2018-06-27T09:54:48.188Z,45.70
2018-06-27T09:57:16.512Z,46.10
2018-06-27T09:59:44.326Z,47.00
2018-06-27T10:02:12.709Z,47.00
2018-06-27T10:04:47.540Z,46.30
2018-06-27T10:07:15.478Z,46.90
2018-06-27T10:09:44.331Z,44.60
2018-06-27T10:12:12.372Z,43.60
2018-06-27T10:14:40.270Z,44.10
2018-06-27T10:17:08.171Z,45.10
2018-06-27T10:19:35.958Z,46.70
2018-06-27T10:22:04.163Z,46.50
2018-06-27T10:24:32.326Z,47.90
2018-06-27T10:27:00.301Z,48.50
2018-06-27T10:29:28.214Z,48.80
2018-06-27T10:31:56.208Z,48.80
2018-06-27T10:34:24.300Z,48.30
2018-06-27T10:36:52.430Z,47.70
2018-06-27T10:39:20.392Z,46.00
2018-06-27T10:41:54.055Z,46.30
2018-06-27T10:44:22.002Z,46.00
2018-06-27T10:46:50.015Z,45.80
2018-06-27T10:49:17.897Z,46.40
2018-06-27T10:51:45.716Z,46.30
2018-06-27T10:54:13.651Z,46.50
2018-06-27T10:56:41.534Z,46.50
2018-06-27T10:59:09.479Z,47.20
2018-06-27T11:01:37.860Z,46.40
2018-06-27T11:04:05.871Z,46.30
2018-06-27T11:06:33.805Z,45.70
2018-06-27T11:09:01.793Z,43.50
2018-06-27T11:11:29.759Z,44.10
2018-06-27T11:13:57.772Z,45.20
2018-06-27T11:16:25.821Z,45.20
2018-06-27T11:18:53.874Z,45.40
2018-06-27T11:21:21.947Z,45.40
2018-06-27T11:23:51.055Z,45.80
2018-06-27T11:26:20.516Z,46.30
2018-06-27T11:28:48.681Z,46.40
2018-06-27T11:31:16.866Z,46.30
2018-06-27T11:33:44.898Z,46.00
2018-06-27T11:36:13.040Z,46.90
2018-06-27T11:38:41.051Z,46.50
2018-06-27T11:41:09.082Z,45.50
2018-06-27T11:43:37.086Z,44.70
2018-06-27T11:46:06.410Z,44.40
2018-06-27T11:48:34.747Z,43.60
2018-06-27T11:51:02.797Z,43.90
2018-06-27T11:53:32.228Z,43.50
2018-06-27T11:56:00.217Z,43.10
2018-06-27T11:58:28.446Z,42.70
2018-06-27T12:00:56.373Z,44.00
2018-06-27T12:03:25.337Z,43.50
2018-06-27T12:08:24.218Z,44.00
2018-06-27T12:10:52.306Z,43.60
2018-06-27T12:13:20.471Z,43.60
2018-06-27T12:15:49.260Z,44.00
2018-06-27T12:18:17.441Z,42.80
2018-06-27T12:20:45.391Z,42.40
2018-06-27T12:23:13.295Z,42.40
2018-06-27T12:25:41.367Z,42.80
2018-06-27T12:28:09.364Z,41.70
2018-06-27T12:30:37.296Z,44.00
2018-06-27T12:33:05.281Z,44.10
2018-06-27T12:35:33.240Z,44.20
2018-06-27T12:38:01.314Z,45.30
2018-06-27T12:40:29.446Z,45.10
2018-06-27T12:42:57.388Z,44.70
2018-06-27T12:45:26.212Z,44.60
2018-06-27T12:47:54.342Z,44.70
2018-06-27T12:50:22.459Z,44.50
2018-06-27T12:52:50.578Z,44.30
2018-06-27T12:55:18.884Z,42.20
2018-06-27T12:57:47.137Z,42.50
2018-06-27T13:00:15.054Z,43.30
2018-06-27T13:02:42.961Z,43.20
2018-06-27T13:05:10.837Z,43.40
2018-06-27T13:07:39.065Z,43.50
2018-06-27T13:10:08.347Z,45.10
2018-06-27T13:12:36.704Z,44.50
2018-06-27T13:15:05.974Z,44.20
2018-06-27T13:17:35.009Z,45.70
2018-06-27T13:20:02.924Z,45.20
2018-06-27T13:22:31.330Z,43.70
2018-06-27T13:27:26.986Z,43.60
2018-06-27T13:29:54.809Z,42.70
2018-06-27T13:32:23.025Z,44.00
2018-06-27T13:34:51.119Z,43.30
2018-06-27T13:37:19.565Z,42.90
2018-06-27T13:39:48.887Z,44.00
2018-06-27T13:42:18.910Z,41.40
2018-06-27T13:44:47.908Z,41.90
2018-06-27T13:47:17.097Z,42.90
2018-06-27T13:49:45.561Z,44.00
2018-06-27T13:52:13.560Z,44.50
2018-06-27T13:54:44.473Z,45.60
2018-06-27T13:57:12.528Z,44.70
2018-06-27T13:59:40.414Z,44.50
2018-06-27T14:02:08.380Z,42.50
2018-06-27T14:04:37.511Z,42.50
2018-06-27T14:07:06.144Z,44.00
2018-06-27T14:09:40.526Z,42.80
2018-06-27T14:12:08.506Z,41.60
2018-06-27T14:14:36.626Z,40.10
2018-06-27T14:17:04.894Z,40.10
2018-06-27T14:19:34.057Z,38.70
2018-06-27T14:22:01.936Z,38.90
2018-06-27T14:24:41.582Z,39.60
2018-06-27T14:27:09.795Z,40.40
2018-06-27T14:29:38.236Z,39.40
2018-06-27T14:32:06.328Z,37.90
2018-06-27T14:34:34.753Z,37.70
2018-06-27T14:37:03.052Z,37.90
2018-06-27T14:39:31.949Z,38.60
2018-06-27T14:42:00.117Z,38.40
2018-06-27T14:44:28.265Z,38.80
2018-06-27T14:46:57.040Z,39.30
2018-06-27T14:51:53.048Z,40.70
2018-06-27T14:54:21.807Z,41.70
2018-06-27T14:56:50.924Z,41.40
2018-06-27T14:59:20.149Z,42.20
2018-06-27T15:01:48.545Z,42.40
2018-06-27T15:04:19.127Z,42.30
2018-06-27T15:06:48.437Z,42.90
2018-06-27T15:11:44.470Z,40.50
2018-06-27T15:14:16.505Z,40.80
2018-06-27T15:16:44.470Z,40.50
2018-06-27T15:19:18.303Z,37.70
2018-06-27T15:21:46.473Z,37.80
2018-06-27T15:24:14.778Z,37.30
2018-06-27T15:26:42.659Z,37.60
2018-06-27T15:29:10.951Z,38.80
2018-06-27T15:31:39.081Z,40.30
2018-06-27T15:34:06.849Z,38.10
2018-06-27T15:36:34.901Z,38.80
2018-06-27T15:39:02.872Z,38.50
2018-06-27T15:41:30.789Z,38.00
2018-06-27T15:43:58.761Z,38.00
2018-06-27T15:46:26.511Z,39.10
2018-06-27T15:48:54.693Z,39.20
2018-06-27T15:51:22.476Z,40.60
2018-06-27T15:53:50.410Z,41.00
2018-06-27T15:56:19.158Z,41.80
2018-06-27T15:58:47.350Z,42.10
2018-06-27T16:01:19.406Z,41.30
2018-06-27T16:03:48.789Z,41.80
2018-06-27T16:06:16.959Z,41.30
2018-06-27T16:08:45.130Z,40.30
2018-06-27T16:11:13.892Z,39.90
2018-06-27T16:13:45.426Z,40.10
2018-06-27T16:16:16.076Z,39.70
2018-06-27T16:18:46.743Z,39.90
2018-06-27T16:21:16.797Z,40.20
2018-06-27T16:23:48.030Z,40.10
2018-06-27T16:26:17.961Z,39.80
2018-06-27T16:28:47.499Z,40.10
2018-06-27T16:31:17.536Z,40.40
2018-06-27T16:33:47.128Z,40.30
2018-06-27T16:36:15.041Z,41.80
2018-06-27T16:38:42.798Z,41.90
2018-06-27T16:41:13.249Z,43.20
2018-06-27T16:43:41.831Z,43.50
2018-06-27T16:46:11.136Z,44.20
2018-06-27T16:48:41.018Z,43.90
2018-06-27T16:53:43.381Z,44.40
2018-06-27T16:56:12.241Z,43.70
2018-06-27T16:58:41.438Z,44.30
2018-06-27T17:01:13.065Z,44.30
2018-06-27T17:03:43.108Z,44.50
2018-06-27T17:06:20.332Z,43.50
2018-06-27T17:08:49.689Z,42.80
2018-06-27T17:11:19.326Z,43.50
2018-06-27T17:13:48.686Z,39.80
2018-06-27T17:16:17.566Z,39.60
2018-06-27T17:21:16.560Z,38.80
2018-06-27T17:23:46.711Z,38.50
2018-06-27T17:26:16.123Z,39.10
2018-06-27T17:28:45.760Z,39.50
2018-06-27T17:31:13.912Z,40.80
2018-06-27T17:33:43.890Z,39.20
2018-06-27T17:36:12.327Z,40.10
2018-06-27T17:38:40.319Z,39.90
2018-06-27T17:41:08.996Z,39.10
2018-06-27T17:43:39.345Z,39.90
2018-06-27T17:46:07.756Z,39.80
2018-06-27T17:48:35.839Z,40.10
2018-06-27T17:51:04.174Z,39.40
2018-06-27T17:53:31.790Z,39.90
2018-06-27T17:55:59.395Z,40.40
2018-06-27T17:58:27.233Z,40.10
2018-06-27T18:00:55.101Z,41.30
2018-06-27T18:03:23.224Z,41.30
2018-06-27T18:05:51.050Z,41.90
2018-06-27T18:08:19.718Z,42.50
2018-06-27T18:10:48.461Z,42.70
2018-06-27T18:13:16.710Z,42.00
2018-06-27T18:15:46.108Z,42.90
2018-06-27T18:18:13.993Z,43.60
2018-06-27T18:20:41.833Z,43.70
2018-06-27T18:23:09.742Z,44.10
2018-06-27T18:25:37.825Z,44.80
2018-06-27T18:28:05.788Z,45.10
2018-06-27T18:30:33.737Z,44.80
2018-06-27T18:35:29.657Z,45.40
2018-06-27T18:37:57.736Z,45.20
2018-06-27T18:40:26.192Z,45.40
2018-06-27T18:42:54.313Z,45.30
2018-06-27T18:45:23.396Z,46.00
2018-06-27T18:47:51.413Z,46.90
2018-06-27T18:50:19.753Z,46.90
2018-06-27T18:52:54.949Z,47.40
2018-06-27T18:55:23.858Z,47.10
2018-06-27T18:57:56.738Z,47.30
2018-06-27T19:00:24.945Z,47.80
2018-06-27T19:02:53.710Z,48.20
2018-06-27T19:05:22.637Z,48.30
2018-06-27T19:08:13.546Z,48.50
2018-06-27T19:10:42.561Z,48.90
2018-06-27T19:13:10.735Z,49.00
2018-06-27T19:15:41.135Z,49.30
2018-06-27T19:18:08.993Z,49.70
2018-06-27T19:20:37.340Z,50.00
2018-06-27T19:23:05.325Z,50.30
2018-06-27T19:25:33.603Z,50.60
2018-06-27T19:28:12.598Z,51.10
2018-06-27T19:30:40.678Z,51.40
2018-06-27T19:33:11.601Z,51.40
2018-06-27T19:35:40.630Z,51.50
2018-06-27T19:38:08.630Z,51.70
2018-06-27T19:40:36.712Z,52.00
2018-06-27T19:43:04.591Z,52.30
2018-06-27T19:45:32.626Z,52.60
2018-06-27T19:48:01.187Z,52.60
2018-06-27T19:50:29.130Z,52.50
2018-06-27T19:52:57.119Z,52.90
2018-06-27T19:55:25.350Z,52.90
2018-06-27T19:57:53.406Z,53.30
2018-06-27T20:00:21.990Z,53.60
2018-06-27T20:02:50.493Z,53.60
2018-06-27T20:05:19.242Z,53.90
2018-06-27T20:07:47.608Z,54.50
2018-06-27T20:10:15.630Z,54.70
2018-06-27T20:12:43.869Z,54.90
2018-06-27T20:15:11.865Z,55.10
2018-06-27T20:17:39.805Z,55.30
2018-06-27T20:20:08.142Z,55.80
2018-06-27T20:22:36.121Z,55.80
2018-06-27T20:25:04.044Z,56.20
2018-06-27T20:27:31.885Z,56.40
2018-06-27T20:32:27.408Z,56.60
2018-06-27T20:34:55.552Z,56.40
2018-06-27T20:37:23.468Z,56.60
2018-06-27T20:39:51.362Z,56.80
2018-06-27T20:42:20.472Z,57.70
2018-06-27T20:44:49.226Z,57.20
2018-06-27T20:47:18.346Z,57.50
2018-06-27T20:49:46.628Z,57.70
2018-06-27T20:52:14.630Z,58.10
2018-06-27T20:54:42.638Z,58.50
2018-06-27T20:57:10.456Z,58.70
2018-06-27T20:59:38.454Z,59.60
2018-06-27T21:02:06.641Z,59.20
2018-06-27T21:04:34.782Z,59.40
2018-06-27T21:07:02.619Z,59.70
2018-06-27T21:09:30.658Z,60.20
2018-06-27T21:11:58.562Z,60.40
2018-06-27T21:14:26.527Z,61.20
2018-06-27T21:19:22.291Z,61.60
2018-06-27T21:21:50.405Z,61.70
2018-06-27T21:24:20.481Z,61.90
2018-06-27T21:26:48.933Z,62.00
2018-06-27T21:29:17.391Z,62.10
2018-06-27T21:31:45.465Z,62.60
2018-06-27T21:34:13.629Z,62.60
2018-06-27T21:36:41.689Z,63.10
2018-06-27T21:39:10.037Z,63.60
2018-06-27T21:41:38.167Z,64.00
2018-06-27T21:44:06.862Z,64.30
2018-06-27T21:46:35.105Z,64.70
2018-06-27T21:49:03.245Z,65.20
2018-06-27T21:51:31.339Z,65.40
2018-06-27T21:53:59.592Z,65.80
2018-06-27T21:56:27.701Z,66.00
2018-06-27T21:58:55.984Z,66.10
2018-06-27T22:01:24.362Z,66.70
2018-06-27T22:03:52.757Z,67.10
2018-06-27T22:06:20.628Z,67.20
2018-06-27T22:08:48.653Z,67.40
2018-06-27T22:11:16.575Z,67.80
2018-06-27T22:13:52.622Z,68.20
2018-06-27T22:16:21.469Z,68.20
2018-06-27T22:18:49.500Z,68.50
2018-06-27T22:21:17.369Z,68.40
2018-06-27T22:23:45.307Z,69.00
2018-06-27T22:26:13.310Z,68.90
2018-06-27T22:28:41.636Z,68.80
2018-06-27T22:33:38.076Z,69.20
2018-06-27T22:36:05.993Z,69.80
2018-06-27T22:38:34.040Z,70.00
2018-06-27T22:41:01.978Z,70.10
2018-06-27T22:43:29.846Z,70.30
2018-06-27T22:45:57.701Z,70.50
2018-06-27T22:48:25.713Z,70.90
2018-06-27T22:50:53.529Z,71.30
2018-06-27T22:53:21.529Z,71.60
2018-06-27T22:55:49.331Z,71.50
2018-06-27T22:58:17.363Z,71.70
2018-06-27T23:00:45.300Z,71.90
2018-06-27T23:03:13.052Z,72.40
2018-06-27T23:05:40.957Z,72.30
2018-06-27T23:08:08.722Z,72.30
2018-06-27T23:10:36.553Z,72.20
2018-06-27T23:13:04.326Z,72.00
2018-06-27T23:15:32.043Z,72.10
2018-06-27T23:17:59.964Z,72.30
2018-06-27T23:20:27.812Z,72.40
2018-06-27T23:22:55.892Z,72.60
2018-06-27T23:25:23.949Z,72.70
2018-06-27T23:27:51.871Z,72.60
2018-06-27T23:30:19.850Z,72.60
2018-06-27T23:32:47.786Z,72.70
2018-06-27T23:35:15.736Z,73.10
2018-06-27T23:37:43.624Z,73.10
2018-06-27T23:40:11.574Z,73.10
2018-06-27T23:42:39.498Z,73.00
2018-06-27T23:45:07.572Z,73.00
2018-06-27T23:47:35.497Z,72.90
2018-06-27T23:50:03.576Z,72.90
2018-06-27T23:52:31.434Z,73.00
2018-06-27T23:54:59.358Z,73.00
2018-06-27T23:57:27.245Z,72.90
2018-06-27T23:59:55.118Z,73.10
